Time;durP1;ratioP1;P1;durP2;ratioP2;P2;SDS_P1;SDS_P2;PMS_P1;PMS_P2;Temp;Humidity;BMP_temperature;BMP_pressure;BME280_temperature;BME280_humidity;BME280_pressure;Samples;Min_cycle;Max_cycle;Signal;HPM_P1;HPM_P2
2021/11/26 00:01:34;;;;;;;4.30;1.00;;;;;;;0.25;100.00;99547.22;5012686;28;20133;-78
2021/11/26 00:04:00;;;;;;;5.78;1.02;;;;;;;0.09;100.00;99539.25;5012173;28;20041;-78
2021/11/26 00:06:31;;;;;;;3.47;0.85;;;;;;;0.25;100.00;99560.44;5015007;28;20436;-78
2021/11/26 00:08:57;;;;;;;3.00;0.65;;;;;;;-0.04;100.00;99516.75;5012535;28;20096;-78
2021/11/26 00:11:24;;;;;;;4.30;0.80;;;;;;;0.12;100.00;99545.06;5013171;28;20193;-77
2021/11/26 00:14:00;;;;;;;2.78;0.73;;;;;;;0.28;100.00;99554.00;5014293;28;20060;-79
2021/11/26 00:16:29;;;;;;;3.95;0.88;;;;;;;0.28;100.00;99546.91;5014145;28;20345;-79
2021/11/26 00:18:59;;;;;;;1.90;0.77;;;;;;;0.18;100.00;99536.47;5013654;28;20120;-78
2021/11/26 00:21:24;;;;;;;4.43;0.90;;;;;;;0.06;100.00;99542.22;4982202;28;20359;-78
2021/11/26 00:23:49;;;;;;;2.40;0.80;;;;;;;-0.04;100.00;99527.34;5012676;28;20076;-78
2021/11/26 00:26:15;;;;;;;5.57;1.33;;;;;;;0.01;100.00;99537.44;5012908;28;20037;-78
2021/11/26 00:28:40;;;;;;;4.10;0.70;;;;;;;-0.23;100.00;99509.13;5014850;28;20025;-78
2021/11/26 00:31:06;;;;;;;4.43;0.70;;;;;;;0.02;100.00;99535.63;5014157;28;20511;-78
2021/11/26 00:33:31;;;;;;;2.97;0.60;;;;;;;0.00;100.00;99530.50;5014849;28;20141;-78
2021/11/26 00:35:58;;;;;;;1.45;0.60;;;;;;;-0.04;100.00;99529.97;5014993;28;20033;-79
2021/11/26 00:38:24;;;;;;;3.25;0.60;;;;;;;-0.11;100.00;99515.75;5014715;28;20076;-78
2021/11/26 00:40:49;;;;;;;1.58;0.70;;;;;;;-0.20;100.00;99506.13;5014688;28;20407;-78
2021/11/26 00:43:15;;;;;;;3.20;0.80;;;;;;;-0.06;100.00;99521.41;5014735;28;20091;-78
2021/11/26 00:45:40;;;;;;;2.38;0.57;;;;;;;-0.07;100.00;99518.91;5013576;28;20041;-79
2021/11/26 00:48:06;;;;;;;2.63;0.60;;;;;;;-0.10;100.00;99522.72;5014293;28;20030;-78
2021/11/26 00:50:32;;;;;;;6.47;0.73;;;;;;;-0.09;100.00;99512.97;5013002;28;20360;-79
2021/11/26 00:52:58;;;;;;;3.15;0.70;;;;;;;-0.12;100.00;99522.03;5014462;28;20040;-79
2021/11/26 00:55:23;;;;;;;5.63;1.33;;;;;;;-0.16;100.00;99528.66;5016008;28;20022;-78
2021/11/26 00:57:48;;;;;;;3.95;1.20;;;;;;;-0.21;100.00;99523.00;5016760;28;20041;-78
2021/11/26 01:00:17;;;;;;;3.08;1.42;;;;;;;-0.26;100.00;99520.03;5016781;28;20464;-79
2021/11/26 01:02:45;;;;;;;3.20;1.23;;;;;;;-0.29;100.00;99525.63;5018694;28;20398;-79
2021/11/26 01:05:12;;;;;;;2.45;0.82;;;;;;;-0.30;100.00;99521.31;5019673;28;20037;-78
2021/11/26 01:07:37;;;;;;;5.28;1.20;;;;;;;-0.33;100.00;99511.91;5018929;28;20030;-78
2021/11/26 01:10:09;;;;;;;5.97;1.17;;;;;;;-0.43;100.00;99505.09;5015957;28;20153;-77
2021/11/26 01:12:37;;;;;;;4.28;0.90;;;;;;;-0.50;100.00;99500.47;5012757;28;20030;-78
2021/11/26 01:15:08;;;;;;;2.70;1.08;;;;;;;-0.91;100.00;99422.06;5012678;28;20037;-79
2021/11/26 01:17:34;;;;;;;3.78;1.35;;;;;;;-0.51;100.00;99492.69;5010851;28;20049;-79
2021/11/26 01:20:00;;;;;;;6.30;1.00;;;;;;;-0.53;100.00;99479.66;5012302;28;20025;-78
2021/11/26 01:22:25;;;;;;;5.18;0.93;;;;;;;-0.42;100.00;99497.00;4998700;28;20072;-78
2021/11/26 01:24:51;;;;;;;6.22;0.90;;;;;;;-0.44;100.00;99483.13;5017074;28;20018;-78
2021/11/26 01:27:16;;;;;;;4.93;1.08;;;;;;;-0.41;100.00;99481.97;5017196;28;20041;-78
2021/11/26 01:29:42;;;;;;;5.82;0.85;;;;;;;-0.41;100.00;99472.22;5016148;28;20049;-79
2021/11/26 01:32:07;;;;;;;4.50;0.85;;;;;;;-0.40;100.00;99478.34;5016034;28;20038;-78
2021/11/26 01:34:33;;;;;;;2.97;0.98;;;;;;;-0.49;100.00;99473.03;5000204;28;20089;-78
2021/11/26 01:36:58;;;;;;;2.53;0.70;;;;;;;-0.44;100.00;99472.56;5017443;28;20037;-78
2021/11/26 01:39:24;;;;;;;2.28;1.13;;;;;;;-0.44;100.00;99482.28;5016550;28;20037;-78
2021/11/26 01:41:51;;;;;;;3.50;0.80;;;;;;;-0.45;100.00;99475.38;5017476;28;20040;-78
2021/11/26 01:44:18;;;;;;;4.80;0.80;;;;;;;-0.54;100.00;99456.84;5016612;28;20030;-78
2021/11/26 01:46:45;;;;;;;4.60;0.80;;;;;;;-0.55;100.00;99470.22;5016440;28;20038;-78
2021/11/26 01:49:12;;;;;;;3.40;0.90;;;;;;;-0.57;100.00;99466.91;5016546;28;20057;-78
2021/11/26 01:51:38;;;;;;;6.55;0.90;;;;;;;-0.55;100.00;99452.53;5017720;28;20033;-79
2021/11/26 01:54:06;;;;;;;1.95;0.90;;;;;;;-0.55;100.00;99451.72;5016812;28;20094;-78
2021/11/26 01:56:32;;;;;;;5.30;0.80;;;;;;;-0.57;100.00;99454.50;5017627;28;20478;-78
2021/11/26 01:58:58;;;;;;;4.85;0.63;;;;;;;-0.58;100.00;99447.59;5016851;28;20033;-78
2021/11/26 02:01:25;;;;;;;6.15;0.80;;;;;;;-0.80;100.00;99424.38;5016846;28;20032;-79
2021/11/26 02:03:51;;;;;;;1.90;0.60;;;;;;;-0.63;100.00;99455.19;5016750;28;20014;-78
2021/11/26 02:06:16;;;;;;;3.47;0.80;;;;;;;-0.71;100.00;99436.66;5015790;28;20509;-78
2021/11/26 02:08:42;;;;;;;3.35;0.75;;;;;;;-0.69;100.00;99441.78;5017195;28;20061;-78
2021/11/26 02:11:09;;;;;;;3.80;0.90;;;;;;;-0.72;100.00;99443.75;5013669;28;20396;-78
2021/11/26 02:13:34;;;;;;;6.95;0.82;;;;;;;-0.66;100.00;99444.94;5017657;28;20045;-78
2021/11/26 02:16:02;;;;;;;2.30;0.80;;;;;;;-0.66;100.00;99439.66;5015252;28;20034;-79
2021/11/26 02:18:31;;;;;;;1.88;0.70;;;;;;;-0.67;100.00;99451.19;5015656;28;20427;-78
2021/11/26 02:20:57;;;;;;;3.60;1.10;;;;;;;-0.65;100.00;99435.19;5015182;28;20455;-78
2021/11/26 02:23:23;;;;;;;3.08;0.75;;;;;;;-0.66;100.00;99446.72;5016831;28;20093;-78
2021/11/26 02:25:49;;;;;;;3.17;0.70;;;;;;;-0.94;100.00;99391.50;5014649;28;20044;-78
2021/11/26 02:28:16;;;;;;;4.85;0.80;;;;;;;-0.70;100.00;99440.94;5015288;28;20104;-79
2021/11/26 02:30:43;;;;;;;2.70;0.70;;;;;;;-0.77;100.00;99432.00;5016207;28;20042;-78
2021/11/26 02:33:14;;;;;;;4.15;1.10;;;;;;;-0.82;100.00;99432.50;5015821;28;20034;-78
2021/11/26 02:35:43;;;;;;;4.00;1.10;;;;;;;-0.86;100.00;99425.88;5011810;28;20036;-79
2021/11/26 02:38:11;;;;;;;6.07;1.08;;;;;;;-0.85;100.00;99432.81;4999701;28;20018;-78
2021/11/26 02:40:39;;;;;;;3.45;0.88;;;;;;;-1.01;100.00;99417.72;5016357;28;20407;-78
2021/11/26 02:43:05;;;;;;;3.20;0.82;;;;;;;-0.94;100.00;99428.47;5017552;28;20163;-78
2021/11/26 02:45:31;;;;;;;2.92;0.75;;;;;;;-1.05;100.00;99416.38;5021076;28;20088;-78
2021/11/26 02:47:58;;;;;;;1.92;0.70;;;;;;;-0.95;100.00;99438.22;4998803;28;20034;-79
2021/11/26 02:50:25;;;;;;;4.45;0.73;;;;;;;-0.95;100.00;99432.94;4996084;28;20363;-78
2021/11/26 02:52:51;;;;;;;2.20;0.80;;;;;;;-1.15;100.00;99394.56;4998561;28;20033;-77
2021/11/26 02:55:22;;;;;;;3.03;1.42;;;;;;;-0.93;100.00;99424.84;5002307;28;20344;-78
2021/11/26 02:57:47;;;;;;;3.80;0.82;;;;;;;-0.95;100.00;99418.91;5016683;28;20503;-78
2021/11/26 03:00:17;;;;;;;3.85;0.80;;;;;;;-0.97;100.00;99419.03;5017156;28;20052;-78
2021/11/26 03:02:43;;;;;;;2.83;0.70;;;;;;;-0.93;100.00;99424.00;5012164;28;20036;-78
2021/11/26 03:05:10;;;;;;;2.58;0.75;;;;;;;-0.93;100.00;99424.00;4996226;28;20113;-78
2021/11/26 03:07:36;;;;;;;5.45;0.95;;;;;;;-0.93;100.00;99418.72;4997627;28;20030;-78
2021/11/26 03:10:04;;;;;;;2.97;0.82;;;;;;;-0.93;100.00;99424.00;4999979;28;20065;-78
2021/11/26 03:12:30;;;;;;;3.45;0.88;;;;;;;-0.95;100.00;99425.00;5017822;28;20038;-79
2021/11/26 03:14:55;;;;;;;4.72;1.00;;;;;;;-0.93;100.00;99426.66;4999526;28;20092;-79
2021/11/26 03:17:24;;;;;;;3.42;0.85;;;;;;;-1.12;100.00;99390.78;5017969;28;20044;-79
2021/11/26 03:19:49;;;;;;;5.55;0.80;;;;;;;-0.97;100.00;99416.41;5016742;28;20046;-78
2021/11/26 03:22:15;;;;;;;3.97;0.85;;;;;;;-0.96;100.00;99419.88;5016507;28;20092;-78
2021/11/26 03:24:40;;;;;;;5.03;1.15;;;;;;;-0.97;100.00;99416.41;5015179;28;20456;-79
2021/11/26 03:27:05;;;;;;;4.50;1.10;;;;;;;-0.96;100.00;99422.50;5016283;28;20036;-79
2021/11/26 03:29:31;;;;;;;2.05;0.75;;;;;;;-0.95;100.00;99416.25;5014389;28;20641;-79
2021/11/26 03:31:58;;;;;;;3.55;0.90;;;;;;;-1.03;100.00;99409.13;5015317;28;20033;-78
2021/11/26 03:34:23;;;;;;;3.25;1.17;;;;;;;-0.99;100.00;99421.03;4997209;28;20371;-78
2021/11/26 03:36:49;;;;;;;3.70;1.20;;;;;;;-1.13;100.00;99402.31;5015145;28;20029;-79
2021/11/26 03:39:14;;;;;;;5.70;1.20;;;;;;;-1.01;100.00;99422.19;5013879;28;20049;-78
2021/11/26 03:41:41;;;;;;;5.10;1.20;;;;;;;-1.03;100.00;99417.03;5015122;28;20026;-79
2021/11/26 03:44:08;;;;;;;2.50;1.00;;;;;;;-1.04;100.00;99411.94;5010660;28;20030;-78
2021/11/26 03:46:34;;;;;;;3.50;1.35;;;;;;;-1.13;100.00;99397.03;4998655;28;20344;-78
2021/11/26 03:48:59;;;;;;;7.00;1.30;;;;;;;-1.09;100.00;99404.50;5014840;28;20036;-78
2021/11/26 03:51:25;;;;;;;2.58;1.00;;;;;;;-1.13;100.00;99403.13;5012435;28;20022;-79
2021/11/26 03:53:50;;;;;;;4.85;1.38;;;;;;;-1.07;100.00;99407.78;5015200;28;20058;-78
2021/11/26 03:56:16;;;;;;;8.80;1.38;;;;;;;-1.13;100.00;99405.78;5013352;28;20022;-78
2021/11/26 03:58:41;;;;;;;4.70;1.20;;;;;;;-1.34;100.00;99395.63;4997789;28;20060;-78
2021/11/26 04:01:07;;;;;;;5.57;1.20;;;;;;;-1.26;100.00;99405.38;5012622;28;20030;-78
2021/11/26 04:03:32;;;;;;;2.72;1.00;;;;;;;-1.33;100.00;99385.91;4998764;28;20041;-78
2021/11/26 04:05:58;;;;;;;3.42;0.90;;;;;;;-1.32;100.00;99396.31;5015680;28;20045;-78
2021/11/26 04:08:23;;;;;;;4.63;1.25;;;;;;;-1.29;100.00;99396.00;5013753;28;20332;-78
2021/11/26 04:10:49;;;;;;;3.80;1.00;;;;;;;-1.34;100.00;99403.53;4997207;28;20092;-79
2021/11/26 04:13:17;;;;;;;4.45;1.13;;;;;;;-1.34;100.00;99398.25;5018758;28;20030;-78
2021/11/26 04:15:43;;;;;;;3.08;1.10;;;;;;;-1.60;100.00;99369.25;5020875;28;20044;-78
2021/11/26 04:18:08;;;;;;;4.03;0.90;;;;;;;-1.36;100.00;99409.94;5018348;28;20026;-78
2021/11/26 04:20:37;;;;;;;5.72;1.17;;;;;;;-1.55;100.00;99374.91;5022852;28;20048;-78
2021/11/26 04:23:04;;;;;;;6.40;1.50;;;;;;;-1.40;100.00;99409.44;5016508;28;20022;-78
2021/11/26 04:25:30;;;;;;;3.35;1.02;;;;;;;-1.44;100.00;99405.47;4999002;28;20083;-79
2021/11/26 04:27:57;;;;;;;5.28;1.02;;;;;;;-1.55;100.00;99390.75;5014416;28;20030;-78
2021/11/26 04:30:24;;;;;;;2.33;0.90;;;;;;;-1.49;100.00;99407.72;5012942;28;20033;-78
2021/11/26 04:32:51;;;;;;;3.63;1.17;;;;;;;-1.54;100.00;99394.19;4997595;28;20030;-78
2021/11/26 04:35:16;;;;;;;4.10;0.90;;;;;;;-1.62;100.00;99381.81;5013775;28;20022;-78
2021/11/26 04:37:42;;;;;;;3.70;1.30;;;;;;;-1.58;100.00;99398.13;5015911;28;20041;-77
2021/11/26 04:40:11;;;;;;;4.30;1.40;;;;;;;-1.61;100.00;99399.28;5019646;28;20379;-78
2021/11/26 04:42:37;;;;;;;6.63;1.20;;;;;;;-1.64;100.00;99398.75;5013329;28;20506;-78
2021/11/26 04:45:09;;;;;;;4.18;1.00;;;;;;;-1.70;100.00;99393.09;5014818;28;20049;-78
2021/11/26 04:47:37;;;;;;;12.45;2.50;;;;;;;-1.73;100.00;99395.22;4996961;28;20030;-78
2021/11/26 04:50:05;;;;;;;4.85;0.90;;;;;;;-1.76;100.00;99393.72;5013420;28;20359;-78
2021/11/26 04:52:30;;;;;;;3.63;0.95;;;;;;;-1.94;100.00;99359.50;5013863;28;20092;-78
2021/11/26 04:54:56;;;;;;;6.55;1.27;;;;;;;-1.75;100.00;99389.31;5016158;28;20018;-78
2021/11/26 04:57:22;;;;;;;6.75;1.15;;;;;;;-1.80;100.00;99392.38;5011404;28;20379;-79
2021/11/26 04:59:47;;;;;;;4.65;1.00;;;;;;;-1.79;100.00;99390.56;5012794;28;20041;-78
2021/11/26 05:02:13;;;;;;;3.88;1.00;;;;;;;-1.81;100.00;99393.38;5009603;28;20048;-78
2021/11/26 05:04:38;;;;;;;3.78;1.23;;;;;;;-1.89;100.00;99369.56;5013589;28;20034;-78
2021/11/26 05:07:04;;;;;;;2.42;1.08;;;;;;;-1.92;100.00;99372.50;5013807;28;20056;-78
2021/11/26 05:09:30;;;;;;;2.78;1.00;;;;;;;-1.91;100.00;99382.09;5012119;28;20041;-78
2021/11/26 05:11:55;;;;;;;7.57;1.60;;;;;;;-2.03;100.00;99365.69;5014646;28;20110;-78
2021/11/26 05:14:25;;;;;;;3.70;1.40;;;;;;;-1.98;100.00;99379.25;5011499;28;20503;-79
2021/11/26 05:16:52;;;;;;;3.90;1.08;;;;;;;-2.05;100.00;99372.94;5013411;28;20057;-78
2021/11/26 05:19:17;;;;;;;4.93;1.02;;;;;;;-2.05;100.00;99390.53;5013481;28;20547;-79
2021/11/26 05:21:43;;;;;;;3.30;1.50;;;;;;;-2.08;100.00;99391.69;5013324;28;20084;-78
2021/11/26 05:24:09;;;;;;;2.47;1.38;;;;;;;-2.29;100.00;99356.91;5014876;28;20041;-78
2021/11/26 05:26:34;;;;;;;4.18;1.20;;;;;;;-2.11;100.00;99386.72;5014974;28;20054;-79
2021/11/26 05:29:01;;;;;;;3.55;1.50;;;;;;;-2.15;100.00;99390.66;5015880;28;20049;-77
2021/11/26 05:31:36;;;;;;;5.43;1.60;;;;;;;-2.23;100.00;99378.22;5013224;28;20410;-77
2021/11/26 05:34:06;;;;;;;4.78;1.10;;;;;;;-2.36;100.00;99368.06;5013254;28;20018;-77
2021/11/26 05:36:32;;;;;;;7.32;1.58;;;;;;;-2.40;100.00;99371.97;5012654;28;20335;-77
2021/11/26 05:38:58;;;;;;;4.93;1.48;;;;;;;-2.32;100.00;99386.19;5014424;28;20037;-77
2021/11/26 05:41:23;;;;;;;6.70;1.52;;;;;;;-2.40;100.00;99386.97;4982445;28;20030;-78
2021/11/26 05:43:49;;;;;;;22.02;13.13;;;;;;;-2.40;100.00;99381.69;5014412;28;20414;-77
2021/11/26 05:46:15;;;;;;;13.45;10.18;;;;;;;-2.41;100.00;99375.59;5010004;28;20400;-78
2021/11/26 05:48:41;;;;;;;9.23;7.57;;;;;;;-2.51;100.00;99364.31;4999338;28;20096;-78
2021/11/26 05:51:06;;;;;;;8.95;4.63;;;;;;;-2.50;100.00;99365.16;5021053;28;20076;-77
2021/11/26 05:53:32;;;;;;;8.65;5.55;;;;;;;-2.49;100.00;99378.16;5014946;28;20069;-77
2021/11/26 05:55:59;;;;;;;8.60;5.97;;;;;;;-2.70;100.00;99352.13;5011545;28;20116;-78
2021/11/26 05:58:25;;;;;;;7.28;2.70;;;;;;;-2.58;100.00;99360.63;5009440;28;20379;-78
2021/11/26 06:00:51;;;;;;;6.20;1.58;;;;;;;-2.63;100.00;99349.72;5012664;28;20048;-78
2021/11/26 06:03:17;;;;;;;7.05;1.83;;;;;;;-2.48;100.00;99357.94;5013511;28;20049;-78
2021/11/26 06:05:42;;;;;;;7.13;1.73;;;;;;;-2.54;100.00;99333.03;5008490;28;20515;-78
2021/11/26 06:08:07;;;;;;;5.70;1.80;;;;;;;-2.34;100.00;99343.41;5011074;28;20022;-78
2021/11/26 06:10:33;;;;;;;3.40;1.80;;;;;;;-2.34;100.00;99338.13;5009993;28;20038;-78
2021/11/26 06:12:58;;;;;;;6.95;2.03;;;;;;;-2.31;100.00;99332.56;4993723;28;20034;-78
2021/11/26 06:15:24;;;;;;;5.38;1.88;;;;;;;-2.22;100.00;99352.69;5010395;28;20472;-78
2021/11/26 06:17:50;;;;;;;6.03;1.70;;;;;;;-2.48;100.00;99308.72;5013426;28;20371;-78
2021/11/26 06:20:16;;;;;;;5.50;1.83;;;;;;;-2.21;100.00;99341.19;5012550;28;20161;-78
2021/11/26 06:22:42;;;;;;;6.32;1.70;;;;;;;-2.21;100.00;99342.00;4996599;28;20034;-78
2021/11/26 06:25:10;;;;;;;5.38;1.73;;;;;;;-2.40;100.00;99311.41;5015658;28;20491;-78
2021/11/26 06:27:37;;;;;;;3.08;1.33;;;;;;;-2.22;100.00;99344.78;5019461;28;20049;-78
2021/11/26 06:30:07;;;;;;;4.80;1.52;;;;;;;-2.20;100.00;99340.22;5016642;28;20042;-78
2021/11/26 06:32:33;;;;;;;5.75;1.75;;;;;;;-2.13;100.00;99344.69;4998636;28;20026;-78
2021/11/26 06:34:58;;;;;;;4.80;1.50;;;;;;;-2.33;100.00;99311.63;5016712;28;20030;-78
2021/11/26 06:37:23;;;;;;;4.43;1.75;;;;;;;-2.09;100.00;99341.75;5001625;28;20051;-78
2021/11/26 06:39:49;;;;;;;5.75;1.70;;;;;;;-2.18;100.00;99317.19;5017992;28;20018;-78
2021/11/26 06:42:16;;;;;;;6.90;1.55;;;;;;;-2.03;100.00;99349.88;5015736;28;20033;-78
2021/11/26 06:44:42;;;;;;;8.05;1.90;;;;;;;-2.16;100.00;99321.28;5013670;28;20384;-79
2021/11/26 06:47:07;;;;;;;3.72;1.23;;;;;;;-2.09;100.00;99342.59;5010576;28;20038;-78
2021/11/26 06:49:33;;;;;;;4.43;1.23;;;;;;;-2.15;100.00;99333.50;5009698;28;20037;-78
2021/11/26 06:51:58;;;;;;;7.18;1.48;;;;;;;-2.06;100.00;99346.72;5009881;28;20452;-78
2021/11/26 06:54:23;;;;;;;5.10;1.48;;;;;;;-2.07;100.00;99353.81;4999099;28;20030;-78
2021/11/26 06:56:49;;;;;;;8.15;1.70;;;;;;;-2.01;100.00;99355.00;5008006;28;20037;-78
2021/11/26 06:59:14;;;;;;;9.65;1.98;;;;;;;-1.99;100.00;99353.84;5012127;28;20034;-78
2021/11/26 07:01:41;;;;;;;6.47;2.10;;;;;;;-2.14;100.00;99339.59;5011164;28;20025;-78
2021/11/26 07:04:09;;;;;;;4.25;2.20;;;;;;;-2.00;100.00;99357.47;5026617;28;20040;-78
2021/11/26 07:06:34;;;;;;;4.90;1.70;;;;;;;-2.08;100.00;99328.44;5013105;28;20414;-78
2021/11/26 07:09:01;;;;;;;9.30;1.90;;;;;;;-2.08;100.00;99322.34;5015134;28;20092;-78
2021/11/26 07:11:26;;;;;;;7.03;1.85;;;;;;;-1.91;100.00;99359.19;5018879;28;20054;-78
2021/11/26 07:13:52;;;;;;;6.97;1.65;;;;;;;-2.11;100.00;99357.75;4993019;28;20041;-78
2021/11/26 07:16:18;;;;;;;7.18;1.50;;;;;;;-2.10;100.00;99361.19;5009994;28;20048;-78
2021/11/26 07:18:44;;;;;;;5.63;1.83;;;;;;;-2.03;100.00;99356.97;5015785;28;20118;-78
2021/11/26 07:21:09;;;;;;;9.70;2.10;;;;;;;-2.21;100.00;99328.03;5021552;28;20057;-79
2021/11/26 07:23:35;;;;;;;5.93;1.70;;;;;;;-2.04;100.00;99364.03;5012845;28;20029;-78
2021/11/26 07:26:00;;;;;;;5.95;1.90;;;;;;;-2.17;100.00;99347.81;4981247;28;20030;-79
2021/11/26 07:28:26;;;;;;;2.55;1.33;;;;;;;-2.15;100.00;99351.94;5010186;28;20037;-79
2021/11/26 07:30:51;;;;;;;7.80;1.98;;;;;;;-2.12;100.00;99358.69;5017039;28;20056;-78
2021/11/26 07:33:17;;;;;;;6.45;1.70;;;;;;;-2.14;100.00;99363.31;5013408;28;20113;-79
2021/11/26 07:35:42;;;;;;;4.00;1.80;;;;;;;-2.17;100.00;99364.44;5013261;28;21232;-78
2021/11/26 07:38:08;;;;;;;6.05;2.28;;;;;;;-2.22;100.00;99342.16;5012196;28;20034;-79
2021/11/26 07:40:33;;;;;;;8.38;2.15;;;;;;;-2.21;100.00;99357.00;5010363;28;20041;-78
2021/11/26 07:42:58;;;;;;;8.63;2.40;;;;;;;-2.17;100.00;99346.00;4978094;28;20352;-81
2021/11/26 07:45:24;;;;;;;8.15;2.83;;;;;;;-2.04;100.00;99350.88;5007776;28;20036;-79
2021/11/26 07:47:52;;;;;;;7.40;2.70;;;;;;;-2.05;100.00;99343.94;5012965;28;20076;-79
2021/11/26 07:50:19;;;;;;;6.40;2.90;;;;;;;-1.95;100.00;99352.59;5013101;28;20045;-79
2021/11/26 07:52:44;;;;;;;8.40;2.53;;;;;;;-1.92;100.00;99360.19;5009382;28;20101;-78
2021/11/26 07:55:12;;;;;;;5.88;2.15;;;;;;;-2.02;100.00;99325.19;5009322;28;20125;-79
2021/11/26 07:57:40;;;;;;;4.40;2.25;;;;;;;-1.91;100.00;99340.75;5009831;28;20112;-79
2021/11/26 08:00:06;;;;;;;7.55;2.00;;;;;;;-2.27;100.00;99279.41;5022432;28;20166;-78
2021/11/26 08:02:33;;;;;;;8.40;2.08;;;;;;;-1.91;100.00;99342.56;5010657;28;20087;-78
2021/11/26 08:04:58;;;;;;;7.15;2.10;;;;;;;-1.92;100.00;99349.66;4994994;28;20030;-78
2021/11/26 08:07:25;;;;;;;5.78;2.28;;;;;;;-1.90;100.00;99346.84;4975215;28;20455;-78
2021/11/26 08:09:50;;;;;;;8.07;2.00;;;;;;;-2.01;100.00;99328.66;5007264;28;20432;-79
2021/11/26 08:12:16;;;;;;;4.68;2.00;;;;;;;-1.86;100.00;99331.53;4992658;28;20096;-79
2021/11/26 08:14:42;;;;;;;4.65;2.33;;;;;;;-1.75;100.00;99340.03;5007421;28;20030;-78
2021/11/26 08:17:07;;;;;;;5.00;2.35;;;;;;;-1.81;100.00;99329.28;5009252;28;20463;-78
2021/11/26 08:19:34;;;;;;;5.68;2.05;;;;;;;-1.84;100.00;99325.13;4991504;28;20037;-78
2021/11/26 08:22:00;;;;;;;8.02;2.40;;;;;;;-1.86;100.00;99342.09;4993346;28;20099;-78
2021/11/26 08:24:26;;;;;;;5.65;2.38;;;;;;;-1.88;100.00;99344.88;5005882;28;21923;-78
2021/11/26 08:26:52;;;;;;;4.68;2.10;;;;;;;-1.79;100.00;99348.38;5007464;28;20029;-78
2021/11/26 08:29:18;;;;;;;7.85;2.42;;;;;;;-1.83;100.00;99342.59;4995307;28;20124;-78
2021/11/26 08:31:44;;;;;;;4.45;2.30;;;;;;;-1.96;100.00;99321.91;5008659;28;20337;-78
2021/11/26 08:34:09;;;;;;;6.05;2.13;;;;;;;-1.99;100.00;99324.84;5007278;28;20041;-78
2021/11/26 08:36:36;;;;;;;7.80;3.70;;;;;;;-1.76;100.00;99348.06;5010514;28;20429;-78
2021/11/26 08:39:03;;;;;;;27.35;13.00;;;;;;;-1.78;100.00;99342.16;5012375;28;20097;-78
2021/11/26 08:41:28;;;;;;;28.50;15.80;;;;;;;-1.75;100.00;99328.66;5008813;28;20108;-79
2021/11/26 08:43:56;;;;;;;28.60;17.48;;;;;;;-1.85;100.00;99325.28;5014209;28;20117;-77
2021/11/26 08:46:21;;;;;;;35.10;20.30;;;;;;;-1.86;100.00;99306.00;5011018;28;20483;-78
2021/11/26 08:48:47;;;;;;;19.10;11.80;;;;;;;-1.73;100.00;99327.50;5009653;28;20042;-78
2021/11/26 08:51:13;;;;;;;18.88;10.15;;;;;;;-1.68;100.00;99333.13;5009407;28;20491;-78
2021/11/26 08:53:44;;;;;;;14.45;6.72;;;;;;;-1.64;100.00;99338.09;5007029;28;20030;-78
2021/11/26 08:56:12;;;;;;;25.15;12.68;;;;;;;-1.67;100.00;99333.97;5010530;28;20037;-78
2021/11/26 08:58:37;;;;;;;18.35;8.95;;;;;;;-1.69;100.00;99322.72;5005237;28;20463;-78
2021/11/26 09:01:04;;;;;;;13.38;6.82;;;;;;;-1.57;100.00;99334.66;4991808;28;20068;-78
2021/11/26 09:03:35;;;;;;;10.75;4.93;;;;;;;-1.54;100.00;99330.91;5009232;28;20091;-78
2021/11/26 09:06:01;;;;;;;8.10;4.28;;;;;;;-1.64;100.00;99312.53;5012904;28;20510;-79
2021/11/26 09:08:27;;;;;;;7.78;3.17;;;;;;;-1.55;100.00;99323.97;5014176;28;20045;-78
2021/11/26 09:10:53;;;;;;;7.65;4.13;;;;;;;-1.65;100.00;99313.53;5013365;28;20050;-78
2021/11/26 09:13:19;;;;;;;7.32;4.38;;;;;;;-1.51;100.00;99318.22;5012702;28;20372;-77
2021/11/26 09:15:45;;;;;;;10.82;4.80;;;;;;;-1.39;100.00;99317.91;5009902;28;20065;-78
2021/11/26 09:18:13;;;;;;;19.77;10.73;;;;;;;-1.32;100.00;99335.63;4996789;28;20030;-78
2021/11/26 09:20:39;;;;;;;15.80;7.60;;;;;;;-1.32;100.00;99309.22;5031678;28;20049;-78
2021/11/26 09:23:06;;;;;;;12.02;7.43;;;;;;;-1.20;100.00;99318.50;5014339;28;20017;-77
2021/11/26 09:25:32;;;;;;;17.02;9.85;;;;;;;-1.14;100.00;99309.09;5035107;28;20097;-78
2021/11/26 09:27:58;;;;;;;18.05;9.70;;;;;;;-1.05;100.00;99316.06;5026802;28;20079;-77
2021/11/26 09:30:26;;;;;;;14.80;8.98;;;;;;;-0.93;100.00;99321.03;5026312;28;20410;-77
2021/11/26 09:32:53;;;;;;;10.70;5.40;;;;;;;-1.05;100.00;99296.78;5018124;28;20018;-78
2021/11/26 09:35:18;;;;;;;8.55;3.92;;;;;;;-0.87;100.00;99318.56;5012764;28;20041;-77
2021/11/26 09:37:46;;;;;;;8.57;4.03;;;;;;;-0.84;100.00;99322.72;5013951;28;20026;-77
2021/11/26 09:40:12;;;;;;;6.15;4.00;;;;;;;-1.26;100.00;99265.53;4996358;28;20091;-78
2021/11/26 09:42:42;;;;;;;15.00;8.20;;;;;;;-1.13;100.00;99300.19;5012897;28;20033;-77
2021/11/26 09:45:20;;;;;;;24.48;12.18;;;;;;;-0.99;100.00;99311.97;5016870;28;20340;-77
2021/11/26 09:47:46;;;;;;;28.38;17.10;;;;;;;-1.03;100.00;99300.06;5017344;28;20030;-77
2021/11/26 09:50:13;;;;;;;11.35;6.60;;;;;;;-0.99;100.00;99307.50;5017456;28;20036;-78
2021/11/26 09:52:40;;;;;;;12.60;7.50;;;;;;;-1.08;100.00;99279.44;5014179;28;20025;-77
2021/11/26 09:55:09;;;;;;;11.10;7.13;;;;;;;-0.83;100.00;99296.16;5017779;28;20038;-78
2021/11/26 09:57:35;;;;;;;6.93;4.07;;;;;;;-0.73;100.00;99301.25;5023874;28;20031;-78
2021/11/26 10:00:02;;;;;;;9.18;6.00;;;;;;;-0.82;100.00;99291.69;5018372;28;20037;-78
2021/11/26 10:02:28;;;;;;;11.68;7.28;;;;;;;-0.68;100.00;99301.63;5016234;28;20034;-78
2021/11/26 10:05:01;;;;;;;10.15;3.97;;;;;;;-0.66;100.00;99294.38;5016907;28;20474;-78
2021/11/26 10:07:27;;;;;;;6.45;2.90;;;;;;;-0.54;100.00;99298.31;5013573;28;20022;-77
2021/11/26 10:09:54;;;;;;;5.68;2.75;;;;;;;-0.59;100.00;99286.59;5009996;28;20094;-78
2021/11/26 10:12:20;;;;;;;5.85;3.10;;;;;;;-0.54;100.00;99298.31;5017175;28;20030;-77
2021/11/26 10:14:49;;;;;;;6.05;2.83;;;;;;;-0.54;100.00;99295.66;5012423;28;20026;-78
2021/11/26 10:17:22;;;;;;;6.97;2.30;;;;;;;-0.49;100.00;99300.47;5010486;28;20041;-77
2021/11/26 10:19:51;;;;;;;5.00;2.30;;;;;;;-0.50;100.00;99289.09;5013244;28;20022;-78
2021/11/26 10:22:34;;;;;;;5.00;2.53;;;;;;;-0.50;100.00;99270.59;5013388;28;20029;-78
2021/11/26 10:24:59;;;;;;;5.05;3.20;;;;;;;-0.21;100.00;99290.38;5010406;28;20076;-78
2021/11/26 10:28:00;;;;;;;11.23;3.20;;;;;;;-0.27;100.00;99264.59;5016433;28;20394;-78
2021/11/26 10:30:44;;;;;;;5.03;2.10;;;;;;;-0.06;100.00;99274.66;5009380;28;20361;-79
2021/11/26 10:33:33;;;;;;;6.28;1.83;;;;;;;0.06;100.00;99288.34;5008683;28;20030;-78
2021/11/26 10:36:01;;;;;;;4.47;1.90;;;;;;;0.01;100.00;99291.50;5010515;28;20064;-78
2021/11/26 10:38:34;;;;;;;4.18;2.50;;;;;;;0.07;100.00;99290.03;5013416;28;20033;-78
2021/11/26 10:41:04;;;;;;;4.78;1.92;;;;;;;-0.31;100.00;99258.00;5012801;28;20041;-78
2021/11/26 10:43:58;;;;;;;6.93;2.10;;;;;;;-0.22;100.00;99259.66;5014580;28;20032;-79
2021/11/26 10:57:35;;;;;;;3.63;1.63;;;;;;;0.18;100.00;99287.00;5010170;28;20048;-79
2021/11/26 11:00:19;;;;;;;5.75;1.77;;;;;;;0.22;100.00;99285.66;5005797;28;20353;-79
2021/11/26 11:02:46;;;;;;;5.13;1.73;;;;;;;0.02;100.00;99257.94;5009630;28;20125;-78
2021/11/26 11:05:22;;;;;;;4.38;2.05;;;;;;;0.37;100.00;99286.63;5013457;28;20030;-78
2021/11/26 11:07:49;;;;;;;5.25;2.63;;;;;;;0.38;100.00;99260.97;5012300;28;20022;-78
2021/11/26 11:10:27;;;;;;;4.43;2.20;;;;;;;0.65;100.00;99283.53;5009565;28;20053;-77
2021/11/26 11:12:54;;;;;;;3.60;1.77;;;;;;;0.64;100.00;99287.19;5009508;28;20022;-79
2021/11/26 11:15:21;;;;;;;6.25;1.50;;;;;;;-0.11;100.00;99179.97;5015830;28;20705;-78
2021/11/26 11:17:49;;;;;;;7.53;1.80;;;;;;;0.52;100.00;99288.53;5015833;28;20137;-78
2021/11/26 11:20:16;;;;;;;3.85;1.40;;;;;;;0.55;100.00;99285.56;5011114;28;20049;-78
2021/11/26 11:22:44;;;;;;;4.13;1.67;;;;;;;0.31;100.00;99236.22;5013445;28;20029;-78
2021/11/26 11:25:12;;;;;;;6.72;2.05;;;;;;;0.49;100.00;99257.94;5014819;28;20101;-78
2021/11/26 11:27:38;;;;;;;2.78;1.50;;;;;;;0.61;100.00;99269.00;5015595;28;20026;-78
2021/11/26 11:30:07;;;;;;;3.45;1.70;;;;;;;0.63;100.00;99264.31;5007784;28;20034;-79
2021/11/26 11:32:34;;;;;;;3.67;1.50;;;;;;;0.74;100.00;99282.50;5012506;28;20034;-78
2021/11/26 11:35:00;;;;;;;3.35;1.50;;;;;;;0.84;100.00;99283.09;5016336;28;20022;-77